Time,TemperatureF,DewpointF,PressureIn,WindDirection,WindDirectionDegrees,WindSpeedMPH,WindSpeedGustMPH,Humidity,HourlyPrecipIn,Conditions,Clouds,dailyrainin,SoftwareType,DateUTC
2013-01-28 00:00:00,28.6,26.1,30.06,SE,135,1.3,1.3,90,0.00,,,0.00,WUHU216HW,2013-01-28 06:00:00,
2013-01-28 00:05:00,28.6,26.1,30.06,SE,135,1.3,1.3,90,0.00,,,0.00,WUHU216HW,2013-01-28 06:05:00,
2013-01-28 00:10:00,28.6,26.1,30.06,SE,135,1.3,1.3,90,0.00,,,0.00,WUHU216HW,2013-01-28 06:10:00,
2013-01-28 00:30:00,28.8,26.0,30.04,ESE,113,1.1,1.1,89,0.00,,,0.00,WUHU216HW,2013-01-28 06:30:00,
2013-01-28 00:35:00,28.8,26.0,30.04,ESE,113,1.1,1.1,89,0.00,,,0.00,WUHU216HW,2013-01-28 06:35:00,
2013-01-28 01:00:00,28.8,26.0,30.04,ESE,113,0.9,0.9,89,0.00,,,0.00,WUHU216HW,2013-01-28 07:00:00,
2013-01-28 01:05:00,28.8,26.0,30.04,ESE,113,0.9,0.9,89,0.00,,,0.00,WUHU216HW,2013-01-28 07:05:00,
2013-01-28 01:10:00,28.8,26.0,30.04,ESE,113,0.9,0.9,89,0.00,,,0.00,WUHU216HW,2013-01-28 07:10:00,
2013-01-28 01:30:00,28.8,25.8,30.03,ESE,113,0.0,0.0,88,0.00,,,0.00,WUHU216HW,2013-01-28 07:30:00,
2013-01-28 01:35:00,28.8,25.8,30.03,ESE,113,0.0,0.0,88,0.00,,,0.00,WUHU216HW,2013-01-28 07:35:00,
2013-01-28 02:00:00,28.6,25.8,30.02,ESE,113,0.0,0.0,89,0.00,,,0.00,WUHU216HW,2013-01-28 08:00:00,
2013-01-28 02:05:00,28.6,25.8,30.02,ESE,113,0.0,0.0,89,0.00,,,0.00,WUHU216HW,2013-01-28 08:05:00,
2013-01-28 02:10:00,28.6,25.8,30.02,ESE,113,0.0,0.0,89,0.00,,,0.00,WUHU216HW,2013-01-28 08:10:00,
2013-01-28 02:30:00,28.8,25.8,30.02,ESE,113,0.0,0.0,88,0.00,,,0.00,WUHU216HW,2013-01-28 08:30:00,
2013-01-28 02:35:00,28.8,25.8,30.02,ESE,113,0.0,0.0,88,0.00,,,0.00,WUHU216HW,2013-01-28 08:35:00,
2013-01-28 03:00:00,28.8,25.8,30.02,ESE,113,0.0,0.0,88,0.00,,,0.00,WUHU216HW,2013-01-28 09:00:00,
2013-01-28 03:05:00,28.8,25.8,30.02,ESE,113,0.0,0.0,88,0.00,,,0.00,WUHU216HW,2013-01-28 09:05:00,
2013-01-28 03:10:00,28.8,25.8,30.02,ESE,113,0.0,0.0,88,0.00,,,0.00,WUHU216HW,2013-01-28 09:10:00,
2013-01-28 03:30:00,28.6,25.6,30.01,ESE,113,0.0,0.0,88,0.00,,,0.00,WUHU216HW,2013-01-28 09:30:00,
2013-01-28 03:35:00,28.6,25.6,30.01,ESE,113,0.0,0.0,88,0.00,,,0.00,WUHU216HW,2013-01-28 09:35:00,
2013-01-28 04:00:00,28.6,25.6,30.02,ESE,113,0.0,0.0,88,0.00,,,0.00,WUHU216HW,2013-01-28 10:00:00,
2013-01-28 04:05:00,28.6,25.6,30.02,ESE,113,0.0,0.0,88,0.00,,,0.00,WUHU216HW,2013-01-28 10:05:00,
2013-01-28 04:30:00,28.8,25.8,30.02,ESE,113,0.0,0.0,88,0.00,,,0.00,WUHU216HW,2013-01-28 10:30:00,
2013-01-28 04:35:00,28.8,25.8,30.02,ESE,113,0.0,0.0,88,0.00,,,0.00,WUHU216HW,2013-01-28 10:35:00,
2013-01-28 05:00:00,28.6,25.6,30.01,ESE,113,0.0,0.0,88,0.00,,,0.00,WUHU216HW,2013-01-28 11:00:00,
2013-01-28 05:05:00,28.6,25.6,30.01,ESE,113,0.0,0.0,88,0.00,,,0.00,WUHU216HW,2013-01-28 11:05:00,
2013-01-28 05:30:00,28.6,25.6,30.01,ESE,113,0.0,0.0,88,0.00,,,0.00,WUHU216HW,2013-01-28 11:30:00,
2013-01-28 05:35:00,28.6,25.6,30.01,ESE,113,0.0,0.0,88,0.00,,,0.00,WUHU216HW,2013-01-28 11:35:00,
2013-01-28 06:00:00,28.8,25.8,30.03,ESE,113,0.0,0.0,88,0.00,,,0.00,WUHU216HW,2013-01-28 12:00:00,
2013-01-28 06:05:00,28.8,25.8,30.03,ESE,113,0.0,0.0,88,0.00,,,0.00,WUHU216HW,2013-01-28 12:05:00,
2013-01-28 06:30:00,28.6,25.6,30.03,ESE,113,0.0,0.0,88,0.00,,,0.00,WUHU216HW,2013-01-28 12:30:00,
2013-01-28 06:35:00,28.6,25.6,30.03,ESE,113,0.0,0.0,88,0.00,,,0.00,WUHU216HW,2013-01-28 12:35:00,
2013-01-28 07:00:00,28.4,25.4,30.04,ESE,113,0.0,0.0,88,0.00,,,0.00,WUHU216HW,2013-01-28 13:00:00,
2013-01-28 07:05:00,28.4,25.4,30.04,ESE,113,0.0,0.0,88,0.00,,,0.00,WUHU216HW,2013-01-28 13:05:00,
2013-01-28 07:30:00,28.6,25.6,30.05,ESE,113,0.0,0.0,88,0.00,,,0.00,WUHU216HW,2013-01-28 13:30:00,
2013-01-28 07:35:00,28.6,25.6,30.05,ESE,113,0.0,0.0,88,0.00,,,0.00,WUHU216HW,2013-01-28 13:35:00,
2013-01-28 08:00:00,28.4,25.4,30.06,ESE,113,0.0,0.0,88,0.00,,,0.00,WUHU216HW,2013-01-28 14:00:00,
2013-01-28 08:05:00,28.4,25.4,30.06,ESE,113,0.0,0.0,88,0.00,,,0.00,WUHU216HW,2013-01-28 14:05:00,
2013-01-28 08:30:00,28.8,25.8,30.08,South,180,0.7,0.7,88,0.00,,,0.00,WUHU216HW,2013-01-28 14:30:00,
2013-01-28 08:35:00,28.8,25.8,30.08,South,180,0.7,0.7,88,0.00,,,0.00,WUHU216HW,2013-01-28 14:35:00,
2013-01-28 09:00:00,31.3,28.3,30.09,South,180,1.6,1.6,88,0.00,,,0.00,WUHU216HW,2013-01-28 15:00:00,
2013-01-28 09:05:00,31.3,28.3,30.09,South,180,1.6,1.6,88,0.00,,,0.00,WUHU216HW,2013-01-28 15:05:00,
2013-01-28 09:30:00,32.8,28.7,30.11,NNW,338,1.6,1.6,85,0.00,,,0.00,WUHU216HW,2013-01-28 15:30:00,
2013-01-28 09:35:00,32.8,28.7,30.11,NNW,338,1.6,1.6,85,0.00,,,0.00,WUHU216HW,2013-01-28 15:35:00,
2013-01-28 10:00:00,34.2,30.1,30.11,NNW,338,0.7,0.7,85,0.00,,,0.00,WUHU216HW,2013-01-28 16:00:00,
2013-01-28 10:05:00,34.2,30.1,30.11,NNW,338,0.7,0.7,85,0.00,,,0.00,WUHU216HW,2013-01-28 16:05:00,
2013-01-28 10:30:00,36.5,31.5,30.11,North,0,0.4,0.4,82,0.00,,,0.00,WUHU216HW,2013-01-28 16:30:00,
2013-01-28 10:35:00,36.5,31.5,30.11,North,0,0.4,0.4,82,0.00,,,0.00,WUHU216HW,2013-01-28 16:35:00,
2013-01-28 11:00:00,35.3,28.7,30.09,NE,45,0.7,0.7,77,0.00,,,0.00,WUHU216HW,2013-01-28 17:00:00,
2013-01-28 11:05:00,35.3,28.7,30.09,NE,45,0.7,0.7,77,0.00,,,0.00,WUHU216HW,2013-01-28 17:05:00,
2013-01-28 11:30:00,36.5,29.7,30.11,North,0,0.0,0.0,76,0.00,,,0.00,WUHU216HW,2013-01-28 17:30:00,
2013-01-28 11:35:00,36.5,29.7,30.11,North,0,0.0,0.0,76,0.00,,,0.00,WUHU216HW,2013-01-28 17:35:00,
2013-01-28 12:00:00,39.2,31.2,30.11,SE,135,1.1,1.1,73,0.00,,,0.00,WUHU216HW,2013-01-28 18:00:00,
2013-01-28 12:05:00,39.2,31.2,30.11,SE,135,1.1,1.1,73,0.00,,,0.00,WUHU216HW,2013-01-28 18:05:00,
2013-01-28 12:10:00,39.2,31.2,30.11,SE,135,1.1,1.1,73,0.00,,,0.00,WUHU216HW,2013-01-28 18:10:00,
2013-01-28 12:30:00,38.2,30.2,30.11,North,0,1.8,1.8,73,0.00,,,0.00,WUHU216HW,2013-01-28 18:30:00,
2013-01-28 12:35:00,38.2,30.2,30.11,North,0,1.8,1.8,73,0.00,,,0.00,WUHU216HW,2013-01-28 18:35:00,
2013-01-28 13:00:00,38.5,30.2,30.09,ESE,113,1.1,1.1,72,0.00,,,0.00,WUHU216HW,2013-01-28 19:00:00,
2013-01-28 13:05:00,38.5,30.2,30.09,ESE,113,1.1,1.1,72,0.00,,,0.00,WUHU216HW,2013-01-28 19:05:00,
2013-01-28 13:10:00,38.5,30.2,30.09,ESE,113,1.1,1.1,72,0.00,,,0.00,WUHU216HW,2013-01-28 19:10:00,
2013-01-28 13:30:00,38.9,31.2,30.09,SSE,158,0.7,0.7,74,0.00,,,0.00,WUHU216HW,2013-01-28 19:30:00,
2013-01-28 13:35:00,38.9,31.2,30.09,SSE,158,0.7,0.7,74,0.00,,,0.00,WUHU216HW,2013-01-28 19:35:00,
2013-01-28 14:00:00,39.1,31.4,30.10,SW,225,0.9,0.9,74,0.00,,,0.00,WUHU216HW,2013-01-28 20:00:00,
2013-01-28 14:05:00,39.1,31.4,30.10,SW,225,1.1,1.1,74,0.00,,,0.00,WUHU216HW,2013-01-28 20:05:00,
2013-01-28 14:10:00,39.1,31.4,30.10,SW,225,1.1,1.1,74,0.00,,,0.00,WUHU216HW,2013-01-28 20:10:00,
2013-01-28 14:30:00,39.1,30.4,30.10,SE,135,3.1,3.1,71,0.00,,,0.00,WUHU216HW,2013-01-28 20:30:00,
2013-01-28 14:35:00,39.1,30.4,30.10,SE,135,3.1,3.1,71,0.00,,,0.00,WUHU216HW,2013-01-28 20:35:00,
2013-01-28 15:00:00,37.8,30.0,30.09,SE,135,2.9,2.9,73,0.00,,,0.00,WUHU216HW,2013-01-28 21:00:00,
2013-01-28 15:05:00,37.8,30.0,30.09,SE,135,4.0,4.0,73,0.00,,,0.00,WUHU216HW,2013-01-28 21:05:00,
2013-01-28 15:10:00,37.8,30.0,30.09,SE,135,4.0,4.0,73,0.00,,,0.00,WUHU216HW,2013-01-28 21:10:00,
2013-01-28 15:30:00,36.7,29.2,30.10,SE,135,1.3,1.3,74,0.00,,,0.00,WUHU216HW,2013-01-28 21:30:00,
2013-01-28 15:35:00,36.7,29.2,30.10,SE,135,1.3,1.3,74,0.00,,,0.00,WUHU216HW,2013-01-28 21:35:00,
2013-01-28 16:00:00,35.6,28.4,30.09,SE,135,2.0,2.0,75,0.00,,,0.00,WUHU216HW,2013-01-28 22:00:00,
2013-01-28 16:05:00,35.6,28.4,30.09,SE,135,2.0,2.0,75,0.00,,,0.00,WUHU216HW,2013-01-28 22:05:00,
2013-01-28 16:10:00,35.6,28.4,30.09,SE,135,2.0,2.0,75,0.00,,,0.00,WUHU216HW,2013-01-28 22:10:00,
2013-01-28 16:30:00,35.3,28.5,30.11,South,180,0.0,0.0,76,0.00,,,0.00,WUHU216HW,2013-01-28 22:30:00,
2013-01-28 16:35:00,35.3,28.5,30.11,South,180,0.0,0.0,76,0.00,,,0.00,WUHU216HW,2013-01-28 22:35:00,
2013-01-28 17:00:00,33.8,27.3,30.10,SE,135,0.4,0.4,77,0.00,,,0.00,WUHU216HW,2013-01-28 23:00:00,
2013-01-28 17:05:00,33.8,27.3,30.10,SE,135,0.4,0.4,77,0.00,,,0.00,WUHU216HW,2013-01-28 23:05:00,
2013-01-28 17:30:00,32.8,27.0,30.11,South,180,0.0,0.0,79,0.00,,,0.00,WUHU216HW,2013-01-28 23:30:00,
2013-01-28 17:35:00,32.8,27.0,30.11,South,180,0.0,0.0,79,0.00,,,0.00,WUHU216HW,2013-01-28 23:35:00,
2013-01-28 18:00:00,31.1,25.7,30.10,SE,135,0.4,0.4,80,0.00,,,0.00,WUHU216HW,2013-01-29 00:00:00,
2013-01-28 18:05:00,31.1,25.7,30.10,SE,135,0.4,0.4,80,0.00,,,0.00,WUHU216HW,2013-01-29 00:05:00,
2013-01-28 18:30:00,30.6,25.7,30.10,SSE,158,3.4,3.4,82,0.00,,,0.00,WUHU216HW,2013-01-29 00:30:00,
2013-01-28 18:35:00,30.6,25.7,30.10,SSE,158,3.4,3.4,82,0.00,,,0.00,WUHU216HW,2013-01-29 00:35:00,
2013-01-28 19:00:00,31.0,26.5,30.09,SE,135,2.9,2.9,83,0.00,,,0.00,WUHU216HW,2013-01-29 01:00:00,
2013-01-28 19:05:00,31.0,26.5,30.09,SE,135,2.9,2.9,83,0.00,,,0.00,WUHU216HW,2013-01-29 01:05:00,
2013-01-28 19:30:00,30.8,26.6,30.09,SSW,203,1.6,1.6,84,0.00,,,0.00,WUHU216HW,2013-01-29 01:30:00,
2013-01-28 19:35:00,30.8,26.6,30.09,SSW,203,1.6,1.6,84,0.00,,,0.00,WUHU216HW,2013-01-29 01:35:00,
2013-01-28 20:00:00,30.2,26.6,30.09,South,180,2.5,2.5,86,0.00,,,0.00,WUHU216HW,2013-01-29 02:00:00,
2013-01-28 20:05:00,30.2,26.6,30.09,South,180,2.5,2.5,86,0.00,,,0.00,WUHU216HW,2013-01-29 02:05:00,
2013-01-28 20:30:00,30.6,27.8,30.08,SSE,158,6.9,6.9,89,0.00,,,0.00,WUHU216HW,2013-01-29 02:30:00,
2013-01-28 20:35:00,30.6,27.8,30.08,SSE,158,6.9,6.9,89,0.00,,,0.00,WUHU216HW,2013-01-29 02:35:00,
2013-01-28 21:00:00,30.4,27.6,30.07,SSE,158,4.5,4.5,89,0.00,,,0.00,WUHU216HW,2013-01-29 03:00:00,
2013-01-28 21:05:00,30.4,27.6,30.07,SSE,158,4.5,4.5,89,0.00,,,0.00,WUHU216HW,2013-01-29 03:05:00,
2013-01-28 21:30:00,30.4,27.6,30.06,SSE,158,4.0,4.0,89,0.00,,,0.00,WUHU216HW,2013-01-29 03:30:00,
2013-01-28 21:35:00,30.4,27.6,30.06,SSE,158,4.0,4.0,89,0.00,,,0.00,WUHU216HW,2013-01-29 03:35:00,
2013-01-28 22:00:00,30.2,27.5,30.05,SSE,158,4.5,4.5,89,0.00,,,0.00,WUHU216HW,2013-01-29 04:00:00,
2013-01-28 22:05:00,30.2,27.5,30.05,SSE,158,4.5,4.5,89,0.00,,,0.00,WUHU216HW,2013-01-29 04:05:00,
2013-01-28 22:30:00,30.4,27.6,30.05,SSE,158,6.0,6.0,89,0.00,,,0.00,WUHU216HW,2013-01-29 04:30:00,
2013-01-28 22:35:00,30.4,27.6,30.05,SSE,158,6.0,6.0,89,0.00,,,0.00,WUHU216HW,2013-01-29 04:35:00,
2013-01-28 23:00:00,30.4,27.6,30.04,SSE,158,1.1,1.1,89,0.00,,,0.00,WUHU216HW,2013-01-29 05:00:00,
2013-01-28 23:01:00,30.4,27.6,30.04,SSE,158,1.1,1.1,89,0.00,,,0.00,WUHU216HW,2013-01-29 05:01:00,
2013-01-28 23:02:00,30.4,27.6,30.04,SSE,158,1.1,1.1,89,0.00,,,0.00,WUHU216HW,2013-01-29 05:02:00,
2013-01-28 23:03:00,30.4,27.6,30.04,SSE,158,1.1,1.1,89,0.00,,,0.00,WUHU216HW,2013-01-29 05:03:00,
2013-01-28 23:08:00,30.4,27.6,30.04,SSE,158,1.1,1.1,89,0.00,,,0.00,WUHU216HW,2013-01-29 05:08:00,
2013-01-28 23:30:00,30.2,27.5,30.01,SSE,158,4.7,4.7,89,0.00,,,0.00,WUHU216HW,2013-01-29 05:30:00,
2013-01-28 23:35:00,30.2,27.5,30.01,SSE,158,4.7,4.7,89,0.00,,,0.00,WUHU216HW,2013-01-29 05:35:00,